sensor_id;sensor_type;location;lat;lon;timestamp;temperature;humidity
16301;DHT22;8258;51.020;4.248;2023-02-28T00:00:11;1.00;99.90
16301;DHT22;8258;51.020;4.248;2023-02-28T00:02:39;1.00;99.90
16301;DHT22;8258;51.020;4.248;2023-02-28T00:05:08;1.00;99.90
16301;DHT22;8258;51.020;4.248;2023-02-28T00:07:35;1.10;99.90
16301;DHT22;8258;51.020;4.248;2023-02-28T00:10:03;1.00;99.90
16301;DHT22;8258;51.020;4.248;2023-02-28T00:12:32;1.00;99.90
16301;DHT22;8258;51.020;4.248;2023-02-28T00:15:00;1.00;99.90
16301;DHT22;8258;51.020;4.248;2023-02-28T00:17:27;1.00;99.90
16301;DHT22;8258;51.020;4.248;2023-02-28T00:19:56;1.00;99.90
16301;DHT22;8258;51.020;4.248;2023-02-28T00:22:39;0.90;99.90
16301;DHT22;8258;51.020;4.248;2023-02-28T00:25:10;0.90;99.90
16301;DHT22;8258;51.020;4.248;2023-02-28T00:27:53;0.90;99.90
16301;DHT22;8258;51.020;4.248;2023-02-28T00:30:23;0.90;99.90
16301;DHT22;8258;51.020;4.248;2023-02-28T00:32:50;0.90;99.90
16301;DHT22;8258;51.020;4.248;2023-02-28T00:35:18;0.90;99.90
16301;DHT22;8258;51.020;4.248;2023-02-28T00:37:44;0.90;99.90
16301;DHT22;8258;51.020;4.248;2023-02-28T00:40:12;0.90;99.90
16301;DHT22;8258;51.020;4.248;2023-02-28T00:42:39;0.90;99.90
16301;DHT22;8258;51.020;4.248;2023-02-28T00:45:07;0.90;99.90
16301;DHT22;8258;51.020;4.248;2023-02-28T00:47:55;1.00;99.90
16301;DHT22;8258;51.020;4.248;2023-02-28T00:53:29;0.90;99.90
16301;DHT22;8258;51.020;4.248;2023-02-28T01:04:02;0.80;99.90
16301;DHT22;8258;51.020;4.248;2023-02-28T01:11:46;0.60;99.90
16301;DHT22;8258;51.020;4.248;2023-02-28T01:14:15;0.60;99.90
16301;DHT22;8258;51.020;4.248;2023-02-28T01:16:46;0.60;99.90
16301;DHT22;8258;51.020;4.248;2023-02-28T01:19:19;0.60;99.90
16301;DHT22;8258;51.020;4.248;2023-02-28T01:21:49;0.60;99.90
16301;DHT22;8258;51.020;4.248;2023-02-28T01:24:16;0.60;99.90
16301;DHT22;8258;51.020;4.248;2023-02-28T01:26:43;0.80;99.90
16301;DHT22;8258;51.020;4.248;2023-02-28T01:29:11;0.90;99.90
16301;DHT22;8258;51.020;4.248;2023-02-28T01:31:43;1.00;99.90
16301;DHT22;8258;51.020;4.248;2023-02-28T01:34:10;1.10;99.90
16301;DHT22;8258;51.020;4.248;2023-02-28T01:36:44;1.20;99.90
16301;DHT22;8258;51.020;4.248;2023-02-28T01:39:15;1.10;99.90
16301;DHT22;8258;51.020;4.248;2023-02-28T01:41:42;1.00;99.90
16301;DHT22;8258;51.020;4.248;2023-02-28T01:47:09;0.90;99.90
16301;DHT22;8258;51.020;4.248;2023-02-28T01:49:36;0.80;99.90
16301;DHT22;8258;51.020;4.248;2023-02-28T01:52:05;0.80;99.90
16301;DHT22;8258;51.020;4.248;2023-02-28T01:54:34;0.70;99.90
16301;DHT22;8258;51.020;4.248;2023-02-28T01:57:04;0.60;99.90
16301;DHT22;8258;51.020;4.248;2023-02-28T01:59:36;0.60;99.90
16301;DHT22;8258;51.020;4.248;2023-02-28T02:02:06;0.60;99.90
16301;DHT22;8258;51.020;4.248;2023-02-28T02:04:38;0.60;99.90
16301;DHT22;8258;51.020;4.248;2023-02-28T02:07:07;0.60;99.90
16301;DHT22;8258;51.020;4.248;2023-02-28T02:09:34;0.50;99.90
16301;DHT22;8258;51.020;4.248;2023-02-28T02:12:03;0.50;99.90
16301;DHT22;8258;51.020;4.248;2023-02-28T02:14:43;0.60;99.90
16301;DHT22;8258;51.020;4.248;2023-02-28T02:51:12;0.30;99.90
16301;DHT22;8258;51.020;4.248;2023-02-28T02:53:46;0.20;99.90
16301;DHT22;8258;51.020;4.248;2023-02-28T02:56:17;0.20;99.90
16301;DHT22;8258;51.020;4.248;2023-02-28T02:58:47;0.30;99.90
16301;DHT22;8258;51.020;4.248;2023-02-28T03:01:19;0.20;99.90
16301;DHT22;8258;51.020;4.248;2023-02-28T03:03:55;0.30;99.90
16301;DHT22;8258;51.020;4.248;2023-02-28T03:06:29;0.20;99.90
16301;DHT22;8258;51.020;4.248;2023-02-28T03:08:57;0.20;99.90
16301;DHT22;8258;51.020;4.248;2023-02-28T03:11:24;0.20;99.90
16301;DHT22;8258;51.020;4.248;2023-02-28T03:13:58;0.10;99.90
16301;DHT22;8258;51.020;4.248;2023-02-28T03:20:07;0.00;99.90
16301;DHT22;8258;51.020;4.248;2023-02-28T03:30:39;-0.10;99.90
16301;DHT22;8258;51.020;4.248;2023-02-28T03:33:12;-0.10;99.90
16301;DHT22;8258;51.020;4.248;2023-02-28T03:35:47;-0.10;99.90
16301;DHT22;8258;51.020;4.248;2023-02-28T03:38:20;-0.10;99.90
16301;DHT22;8258;51.020;4.248;2023-02-28T03:40:51;-0.20;99.90
16301;DHT22;8258;51.020;4.248;2023-02-28T03:43:24;-0.20;99.90
16301;DHT22;8258;51.020;4.248;2023-02-28T03:45:55;-0.30;99.90
16301;DHT22;8258;51.020;4.248;2023-02-28T03:48:27;-0.30;99.90
16301;DHT22;8258;51.020;4.248;2023-02-28T03:50:58;-0.40;99.90
16301;DHT22;8258;51.020;4.248;2023-02-28T03:53:28;-0.50;99.90
16301;DHT22;8258;51.020;4.248;2023-02-28T03:55:59;-0.50;99.90
16301;DHT22;8258;51.020;4.248;2023-02-28T03:58:35;-0.50;99.90
16301;DHT22;8258;51.020;4.248;2023-02-28T04:01:09;-0.50;99.90
16301;DHT22;8258;51.020;4.248;2023-02-28T04:03:38;-0.50;99.90
16301;DHT22;8258;51.020;4.248;2023-02-28T04:06:07;-0.50;99.90
16301;DHT22;8258;51.020;4.248;2023-02-28T04:08:35;-0.50;99.90
16301;DHT22;8258;51.020;4.248;2023-02-28T04:11:05;-0.50;99.90
16301;DHT22;8258;51.020;4.248;2023-02-28T04:13:33;-0.50;99.90
16301;DHT22;8258;51.020;4.248;2023-02-28T04:16:11;-0.50;99.90
16301;DHT22;8258;51.020;4.248;2023-02-28T04:18:40;-0.40;99.90
16301;DHT22;8258;51.020;4.248;2023-02-28T04:49:34;0.20;99.90
16301;DHT22;8258;51.020;4.248;2023-02-28T04:52:09;0.40;99.90
16301;DHT22;8258;51.020;4.248;2023-02-28T04:54:36;0.40;99.90
16301;DHT22;8258;51.020;4.248;2023-02-28T04:57:07;0.40;99.90
16301;DHT22;8258;51.020;4.248;2023-02-28T04:59:35;0.40;99.90
16301;DHT22;8258;51.020;4.248;2023-02-28T05:02:05;0.60;99.90
16301;DHT22;8258;51.020;4.248;2023-02-28T05:04:38;0.80;99.90
16301;DHT22;8258;51.020;4.248;2023-02-28T05:09:48;0.90;99.90
16301;DHT22;8258;51.020;4.248;2023-02-28T05:12:17;0.90;99.90
16301;DHT22;8258;51.020;4.248;2023-02-28T05:14:45;1.00;99.90
16301;DHT22;8258;51.020;4.248;2023-02-28T05:17:14;1.10;99.90
16301;DHT22;8258;51.020;4.248;2023-02-28T05:19:48;1.10;99.90
16301;DHT22;8258;51.020;4.248;2023-02-28T05:22:16;1.10;99.90
16301;DHT22;8258;51.020;4.248;2023-02-28T05:24:43;1.10;99.90
16301;DHT22;8258;51.020;4.248;2023-02-28T05:27:10;1.20;99.90
16301;DHT22;8258;51.020;4.248;2023-02-28T05:29:37;1.20;99.90
16301;DHT22;8258;51.020;4.248;2023-02-28T05:32:09;1.20;99.90
16301;DHT22;8258;51.020;4.248;2023-02-28T05:34:37;1.10;99.90
16301;DHT22;8258;51.020;4.248;2023-02-28T05:37:07;1.20;99.90
16301;DHT22;8258;51.020;4.248;2023-02-28T05:39:38;1.30;99.90
16301;DHT22;8258;51.020;4.248;2023-02-28T05:42:05;1.30;99.90
16301;DHT22;8258;51.020;4.248;2023-02-28T05:44:32;1.30;99.90
16301;DHT22;8258;51.020;4.248;2023-02-28T05:46:59;1.30;99.90
16301;DHT22;8258;51.020;4.248;2023-02-28T05:49:27;1.40;99.90
16301;DHT22;8258;51.020;4.248;2023-02-28T05:51:55;1.40;99.90
16301;DHT22;8258;51.020;4.248;2023-02-28T05:54:23;1.40;99.90
16301;DHT22;8258;51.020;4.248;2023-02-28T05:56:50;1.40;99.90
16301;DHT22;8258;51.020;4.248;2023-02-28T05:59:17;1.30;99.90
16301;DHT22;8258;51.020;4.248;2023-02-28T06:01:45;1.30;99.90
16301;DHT22;8258;51.020;4.248;2023-02-28T06:04:16;1.30;99.90
16301;DHT22;8258;51.020;4.248;2023-02-28T06:06:44;1.30;99.90
16301;DHT22;8258;51.020;4.248;2023-02-28T06:09:11;1.40;99.90
16301;DHT22;8258;51.020;4.248;2023-02-28T06:11:40;1.40;99.90
16301;DHT22;8258;51.020;4.248;2023-02-28T06:14:09;1.40;99.90
16301;DHT22;8258;51.020;4.248;2023-02-28T06:16:40;1.50;99.90
16301;DHT22;8258;51.020;4.248;2023-02-28T06:19:11;1.60;99.90
16301;DHT22;8258;51.020;4.248;2023-02-28T06:21:38;1.50;99.90
16301;DHT22;8258;51.020;4.248;2023-02-28T06:24:06;1.50;99.90
16301;DHT22;8258;51.020;4.248;2023-02-28T06:26:33;1.50;99.90
16301;DHT22;8258;51.020;4.248;2023-02-28T06:29:02;1.50;99.90
16301;DHT22;8258;51.020;4.248;2023-02-28T06:31:29;1.50;99.90
16301;DHT22;8258;51.020;4.248;2023-02-28T06:33:57;1.60;99.90
16301;DHT22;8258;51.020;4.248;2023-02-28T06:36:24;1.70;99.90
16301;DHT22;8258;51.020;4.248;2023-02-28T06:38:51;1.70;99.90
16301;DHT22;8258;51.020;4.248;2023-02-28T06:41:22;1.70;99.90
16301;DHT22;8258;51.020;4.248;2023-02-28T06:43:50;1.70;99.90
16301;DHT22;8258;51.020;4.248;2023-02-28T06:46:19;1.70;99.90
16301;DHT22;8258;51.020;4.248;2023-02-28T06:48:46;1.80;99.90
16301;DHT22;8258;51.020;4.248;2023-02-28T06:51:16;1.90;99.90
16301;DHT22;8258;51.020;4.248;2023-02-28T06:53:44;1.90;99.90
16301;DHT22;8258;51.020;4.248;2023-02-28T06:56:12;1.90;99.90
16301;DHT22;8258;51.020;4.248;2023-02-28T06:58:40;2.00;99.90
16301;DHT22;8258;51.020;4.248;2023-02-28T07:01:07;2.00;99.90
16301;DHT22;8258;51.020;4.248;2023-02-28T07:03:36;2.00;99.90
16301;DHT22;8258;51.020;4.248;2023-02-28T07:06:05;2.10;99.90
16301;DHT22;8258;51.020;4.248;2023-02-28T07:08:32;2.10;99.90
16301;DHT22;8258;51.020;4.248;2023-02-28T07:10:59;2.10;99.90
16301;DHT22;8258;51.020;4.248;2023-02-28T07:13:27;2.10;99.90
16301;DHT22;8258;51.020;4.248;2023-02-28T07:15:55;2.20;99.90
16301;DHT22;8258;51.020;4.248;2023-02-28T07:18:23;2.30;99.90
16301;DHT22;8258;51.020;4.248;2023-02-28T07:20:51;2.30;99.90
16301;DHT22;8258;51.020;4.248;2023-02-28T07:23:18;2.40;99.90
16301;DHT22;8258;51.020;4.248;2023-02-28T07:25:46;2.70;99.90
16301;DHT22;8258;51.020;4.248;2023-02-28T07:28:13;3.10;99.90
16301;DHT22;8258;51.020;4.248;2023-02-28T07:30:40;3.30;99.90
16301;DHT22;8258;51.020;4.248;2023-02-28T07:33:07;3.50;99.90
16301;DHT22;8258;51.020;4.248;2023-02-28T07:35:34;3.70;99.90
16301;DHT22;8258;51.020;4.248;2023-02-28T07:38:03;3.70;99.90
16301;DHT22;8258;51.020;4.248;2023-02-28T07:40:30;3.80;99.90
16301;DHT22;8258;51.020;4.248;2023-02-28T07:42:59;4.30;99.90
16301;DHT22;8258;51.020;4.248;2023-02-28T07:45:26;5.40;99.90
16301;DHT22;8258;51.020;4.248;2023-02-28T07:47:54;5.50;99.90
16301;DHT22;8258;51.020;4.248;2023-02-28T07:50:21;5.10;99.90
16301;DHT22;8258;51.020;4.248;2023-02-28T07:52:48;4.60;99.90
16301;DHT22;8258;51.020;4.248;2023-02-28T07:55:17;4.50;99.90
16301;DHT22;8258;51.020;4.248;2023-02-28T07:57:44;4.50;99.90
16301;DHT22;8258;51.020;4.248;2023-02-28T08:00:12;4.20;99.90
16301;DHT22;8258;51.020;4.248;2023-02-28T08:02:39;4.10;99.90
16301;DHT22;8258;51.020;4.248;2023-02-28T08:05:07;4.10;99.90
16301;DHT22;8258;51.020;4.248;2023-02-28T08:07:34;4.00;99.90
16301;DHT22;8258;51.020;4.248;2023-02-28T08:10:01;4.10;99.90
16301;DHT22;8258;51.020;4.248;2023-02-28T08:12:30;4.10;99.90
16301;DHT22;8258;51.020;4.248;2023-02-28T08:14:57;3.90;99.90
16301;DHT22;8258;51.020;4.248;2023-02-28T08:17:24;3.80;99.90
16301;DHT22;8258;51.020;4.248;2023-02-28T08:19:51;3.80;99.90
16301;DHT22;8258;51.020;4.248;2023-02-28T08:22:18;3.80;99.90
16301;DHT22;8258;51.020;4.248;2023-02-28T08:24:45;3.70;99.90
16301;DHT22;8258;51.020;4.248;2023-02-28T08:27:12;3.70;99.90
16301;DHT22;8258;51.020;4.248;2023-02-28T08:29:40;3.70;99.90
16301;DHT22;8258;51.020;4.248;2023-02-28T08:32:07;3.80;99.90
16301;DHT22;8258;51.020;4.248;2023-02-28T08:34:34;3.80;99.90
16301;DHT22;8258;51.020;4.248;2023-02-28T08:37:01;3.90;99.90
16301;DHT22;8258;51.020;4.248;2023-02-28T08:39:28;3.90;99.90
16301;DHT22;8258;51.020;4.248;2023-02-28T08:41:55;3.80;99.90
16301;DHT22;8258;51.020;4.248;2023-02-28T08:44:22;3.90;99.90
16301;DHT22;8258;51.020;4.248;2023-02-28T08:46:50;4.00;99.90
16301;DHT22;8258;51.020;4.248;2023-02-28T08:49:17;4.00;99.90
16301;DHT22;8258;51.020;4.248;2023-02-28T08:51:44;4.00;99.90
16301;DHT22;8258;51.020;4.248;2023-02-28T08:54:11;4.00;99.90
16301;DHT22;8258;51.020;4.248;2023-02-28T08:56:40;3.90;99.90
16301;DHT22;8258;51.020;4.248;2023-02-28T08:59:09;4.00;99.90
16301;DHT22;8258;51.020;4.248;2023-02-28T09:01:36;4.20;99.90
16301;DHT22;8258;51.020;4.248;2023-02-28T09:04:05;4.30;99.90
16301;DHT22;8258;51.020;4.248;2023-02-28T09:06:34;4.40;99.90
16301;DHT22;8258;51.020;4.248;2023-02-28T09:09:01;4.30;99.90
16301;DHT22;8258;51.020;4.248;2023-02-28T09:11:29;4.30;99.90
16301;DHT22;8258;51.020;4.248;2023-02-28T09:13:57;4.40;99.90
16301;DHT22;8258;51.020;4.248;2023-02-28T09:16:26;4.50;99.90
16301;DHT22;8258;51.020;4.248;2023-02-28T09:18:53;4.70;99.90
16301;DHT22;8258;51.020;4.248;2023-02-28T09:21:21;5.10;99.90
16301;DHT22;8258;51.020;4.248;2023-02-28T09:23:49;5.50;99.90
16301;DHT22;8258;51.020;4.248;2023-02-28T09:26:18;5.80;99.90
16301;DHT22;8258;51.020;4.248;2023-02-28T09:28:46;5.70;99.90
16301;DHT22;8258;51.020;4.248;2023-02-28T09:31:14;5.80;99.90
16301;DHT22;8258;51.020;4.248;2023-02-28T09:33:42;6.00;99.90
16301;DHT22;8258;51.020;4.248;2023-02-28T09:36:09;6.10;99.90
16301;DHT22;8258;51.020;4.248;2023-02-28T09:38:37;6.20;99.90
16301;DHT22;8258;51.020;4.248;2023-02-28T09:41:12;6.80;99.90
16301;DHT22;8258;51.020;4.248;2023-02-28T09:43:44;8.60;98.40
16301;DHT22;8258;51.020;4.248;2023-02-28T09:46:30;9.80;81.20
16301;DHT22;8258;51.020;4.248;2023-02-28T09:49:00;10.30;75.40
16301;DHT22;8258;51.020;4.248;2023-02-28T09:51:45;11.00;68.20
16301;DHT22;8258;51.020;4.248;2023-02-28T09:54:19;10.60;63.60
16301;DHT22;8258;51.020;4.248;2023-02-28T09:56:50;10.10;63.30
16301;DHT22;8258;51.020;4.248;2023-02-28T09:59:34;9.80;65.80
16301;DHT22;8258;51.020;4.248;2023-02-28T10:02:13;10.50;61.70
16301;DHT22;8258;51.020;4.248;2023-02-28T10:04:47;11.10;57.80
16301;DHT22;8258;51.020;4.248;2023-02-28T10:07:27;11.10;57.90
16301;DHT22;8258;51.020;4.248;2023-02-28T10:10:00;10.50;58.80
16301;DHT22;8258;51.020;4.248;2023-02-28T10:12:29;10.40;57.50
16301;DHT22;8258;51.020;4.248;2023-02-28T10:14:58;10.40;57.90
16301;DHT22;8258;51.020;4.248;2023-02-28T10:17:36;11.40;56.70
16301;DHT22;8258;51.020;4.248;2023-02-28T10:20:09;12.70;52.80
16301;DHT22;8258;51.020;4.248;2023-02-28T10:22:44;13.10;50.80
16301;DHT22;8258;51.020;4.248;2023-02-28T10:25:19;13.60;47.60
16301;DHT22;8258;51.020;4.248;2023-02-28T10:27:46;13.30;47.20
16301;DHT22;8258;51.020;4.248;2023-02-28T10:30:14;13.30;45.00
16301;DHT22;8258;51.020;4.248;2023-02-28T10:32:47;12.40;44.80
16301;DHT22;8258;51.020;4.248;2023-02-28T10:35:18;11.50;48.60
16301;DHT22;8258;51.020;4.248;2023-02-28T10:37:48;11.90;48.10
16301;DHT22;8258;51.020;4.248;2023-02-28T10:40:34;12.60;48.30
16301;DHT22;8258;51.020;4.248;2023-02-28T10:43:03;11.90;48.30
16301;DHT22;8258;51.020;4.248;2023-02-28T10:45:32;10.60;47.40
16301;DHT22;8258;51.020;4.248;2023-02-28T10:48:03;10.90;52.10
16301;DHT22;8258;51.020;4.248;2023-02-28T10:50:37;12.40;48.80
16301;DHT22;8258;51.020;4.248;2023-02-28T10:53:33;12.70;43.00
16301;DHT22;8258;51.020;4.248;2023-02-28T10:56:17;11.30;45.00
16301;DHT22;8258;51.020;4.248;2023-02-28T10:58:50;10.70;47.00
16301;DHT22;8258;51.020;4.248;2023-02-28T11:01:19;11.10;47.30
16301;DHT22;8258;51.020;4.248;2023-02-28T11:03:47;10.70;44.00
16301;DHT22;8258;51.020;4.248;2023-02-28T11:06:17;9.80;45.50
16301;DHT22;8258;51.020;4.248;2023-02-28T11:08:47;9.20;46.50
16301;DHT22;8258;51.020;4.248;2023-02-28T11:11:16;9.40;48.30
16301;DHT22;8258;51.020;4.248;2023-02-28T11:13:45;11.10;46.30
16301;DHT22;8258;51.020;4.248;2023-02-28T11:16:14;12.10;40.20
16301;DHT22;8258;51.020;4.248;2023-02-28T11:18:48;11.00;42.80
16301;DHT22;8258;51.020;4.248;2023-02-28T11:21:19;10.90;40.70
16301;DHT22;8258;51.020;4.248;2023-02-28T11:23:48;11.10;42.30
16301;DHT22;8258;51.020;4.248;2023-02-28T11:26:35;12.40;40.60
16301;DHT22;8258;51.020;4.248;2023-02-28T11:29:10;12.90;40.20
16301;DHT22;8258;51.020;4.248;2023-02-28T11:31:38;13.40;37.80
16301;DHT22;8258;51.020;4.248;2023-02-28T11:34:22;14.20;37.90
16301;DHT22;8258;51.020;4.248;2023-02-28T11:36:50;13.90;33.80
16301;DHT22;8258;51.020;4.248;2023-02-28T11:39:17;12.00;32.10
16301;DHT22;8258;51.020;4.248;2023-02-28T11:42:00;11.10;37.60
16301;DHT22;8258;51.020;4.248;2023-02-28T11:44:42;12.10;38.00
16301;DHT22;8258;51.020;4.248;2023-02-28T11:47:15;13.00;32.20
16301;DHT22;8258;51.020;4.248;2023-02-28T11:49:50;13.30;34.80
16301;DHT22;8258;51.020;4.248;2023-02-28T11:52:26;13.30;31.50
16301;DHT22;8258;51.020;4.248;2023-02-28T11:55:13;13.00;32.40
16301;DHT22;8258;51.020;4.248;2023-02-28T11:58:01;13.40;33.90
16301;DHT22;8258;51.020;4.248;2023-02-28T12:00:41;14.70;31.50
16301;DHT22;8258;51.020;4.248;2023-02-28T12:03:19;13.90;30.70
16301;DHT22;8258;51.020;4.248;2023-02-28T12:05:53;14.10;31.20
16301;DHT22;8258;51.020;4.248;2023-02-28T12:08:36;14.90;31.20
16301;DHT22;8258;51.020;4.248;2023-02-28T12:11:11;14.50;28.60
16301;DHT22;8258;51.020;4.248;2023-02-28T12:13:50;14.00;31.10
16301;DHT22;8258;51.020;4.248;2023-02-28T12:16:31;15.00;29.50
16301;DHT22;8258;51.020;4.248;2023-02-28T12:19:10;14.90;29.90
16301;DHT22;8258;51.020;4.248;2023-02-28T12:22:00;14.90;27.60
16301;DHT22;8258;51.020;4.248;2023-02-28T12:24:40;13.90;28.70
16301;DHT22;8258;51.020;4.248;2023-02-28T12:27:12;14.20;30.20
16301;DHT22;8258;51.020;4.248;2023-02-28T12:29:47;14.70;29.50
16301;DHT22;8258;51.020;4.248;2023-02-28T12:32:18;15.50;28.50
16301;DHT22;8258;51.020;4.248;2023-02-28T12:34:49;15.90;28.40
16301;DHT22;8258;51.020;4.248;2023-02-28T12:37:20;14.60;26.50
16301;DHT22;8258;51.020;4.248;2023-02-28T12:39:54;14.40;27.40
16301;DHT22;8258;51.020;4.248;2023-02-28T12:42:26;13.60;27.80
16301;DHT22;8258;51.020;4.248;2023-02-28T12:44:59;14.00;29.50
16301;DHT22;8258;51.020;4.248;2023-02-28T12:47:26;14.90;28.60
16301;DHT22;8258;51.020;4.248;2023-02-28T12:49:56;15.30;27.50
16301;DHT22;8258;51.020;4.248;2023-02-28T12:52:30;15.50;28.50
16301;DHT22;8258;51.020;4.248;2023-02-28T12:55:04;15.50;26.40
16301;DHT22;8258;51.020;4.248;2023-02-28T12:57:38;15.80;26.40
16301;DHT22;8258;51.020;4.248;2023-02-28T13:00:13;15.50;25.40
16301;DHT22;8258;51.020;4.248;2023-02-28T13:06:05;15.90;26.20
16301;DHT22;8258;51.020;4.248;2023-02-28T13:08:59;15.80;25.80
16301;DHT22;8258;51.020;4.248;2023-02-28T13:11:29;15.20;27.10
16301;DHT22;8258;51.020;4.248;2023-02-28T13:13:59;15.90;27.70
16301;DHT22;8258;51.020;4.248;2023-02-28T13:16:27;16.80;25.10
16301;DHT22;8258;51.020;4.248;2023-02-28T13:19:09;16.30;25.80
16301;DHT22;8258;51.020;4.248;2023-02-28T13:21:44;16.60;25.20
16301;DHT22;8258;51.020;4.248;2023-02-28T13:27:35;16.00;24.80
16301;DHT22;8258;51.020;4.248;2023-02-28T13:33:28;15.00;24.50
16301;DHT22;8258;51.020;4.248;2023-02-28T13:36:26;13.10;26.60
16301;DHT22;8258;51.020;4.248;2023-02-28T13:38:55;13.80;26.80
16301;DHT22;8258;51.020;4.248;2023-02-28T13:41:48;13.90;26.20
16301;DHT22;8258;51.020;4.248;2023-02-28T13:44:21;14.20;25.50
16301;DHT22;8258;51.020;4.248;2023-02-28T13:47:28;14.70;25.80
16301;DHT22;8258;51.020;4.248;2023-02-28T13:50:24;15.00;25.90
16301;DHT22;8258;51.020;4.248;2023-02-28T13:53:05;14.50;25.40
16301;DHT22;8258;51.020;4.248;2023-02-28T13:55:45;15.10;24.10
16301;DHT22;8258;51.020;4.248;2023-02-28T13:58:27;13.30;25.70
16301;DHT22;8258;51.020;4.248;2023-02-28T14:01:16;13.10;27.00
16301;DHT22;8258;51.020;4.248;2023-02-28T14:06:52;15.10;26.30
16301;DHT22;8258;51.020;4.248;2023-02-28T14:09:24;15.70;24.20
16301;DHT22;8258;51.020;4.248;2023-02-28T14:11:52;13.60;25.30
16301;DHT22;8258;51.020;4.248;2023-02-28T14:14:54;13.80;25.40
16301;DHT22;8258;51.020;4.248;2023-02-28T14:17:24;12.60;26.50
16301;DHT22;8258;51.020;4.248;2023-02-28T14:19:52;11.80;28.60
16301;DHT22;8258;51.020;4.248;2023-02-28T14:22:40;11.60;28.00
16301;DHT22;8258;51.020;4.248;2023-02-28T14:25:18;13.00;29.00
16301;DHT22;8258;51.020;4.248;2023-02-28T14:27:50;14.30;26.50
16301;DHT22;8258;51.020;4.248;2023-02-28T14:30:45;14.70;26.00
16301;DHT22;8258;51.020;4.248;2023-02-28T14:36:22;14.80;26.10
16301;DHT22;8258;51.020;4.248;2023-02-28T14:38:52;14.80;25.30
16301;DHT22;8258;51.020;4.248;2023-02-28T14:41:23;12.50;26.90
16301;DHT22;8258;51.020;4.248;2023-02-28T14:43:53;13.20;27.90
16301;DHT22;8258;51.020;4.248;2023-02-28T14:46:23;13.80;26.20
16301;DHT22;8258;51.020;4.248;2023-02-28T14:48:52;13.90;27.70
16301;DHT22;8258;51.020;4.248;2023-02-28T14:51:22;13.70;27.50
16301;DHT22;8258;51.020;4.248;2023-02-28T14:53:51;14.70;28.20
16301;DHT22;8258;51.020;4.248;2023-02-28T14:56:24;15.90;27.20
16301;DHT22;8258;51.020;4.248;2023-02-28T14:58:54;16.30;26.30
16301;DHT22;8258;51.020;4.248;2023-02-28T15:01:23;16.40;24.60
16301;DHT22;8258;51.020;4.248;2023-02-28T15:04:00;16.40;25.40
16301;DHT22;8258;51.020;4.248;2023-02-28T15:06:28;16.20;25.90
16301;DHT22;8258;51.020;4.248;2023-02-28T15:09:14;16.40;26.00
16301;DHT22;8258;51.020;4.248;2023-02-28T15:11:44;15.80;25.10
16301;DHT22;8258;51.020;4.248;2023-02-28T15:14:17;15.40;25.50
16301;DHT22;8258;51.020;4.248;2023-02-28T15:16:46;16.00;26.30
16301;DHT22;8258;51.020;4.248;2023-02-28T15:19:20;15.50;25.10
16301;DHT22;8258;51.020;4.248;2023-02-28T15:21:54;14.60;25.70
16301;DHT22;8258;51.020;4.248;2023-02-28T15:24:27;13.20;28.30
16301;DHT22;8258;51.020;4.248;2023-02-28T15:26:59;13.60;29.00
16301;DHT22;8258;51.020;4.248;2023-02-28T15:29:28;13.60;27.90
16301;DHT22;8258;51.020;4.248;2023-02-28T15:31:57;12.50;27.80
16301;DHT22;8258;51.020;4.248;2023-02-28T15:34:34;13.00;28.60
16301;DHT22;8258;51.020;4.248;2023-02-28T15:37:02;14.00;28.30
16301;DHT22;8258;51.020;4.248;2023-02-28T15:39:41;14.20;28.00
16301;DHT22;8258;51.020;4.248;2023-02-28T15:42:12;13.80;28.20
16301;DHT22;8258;51.020;4.248;2023-02-28T15:44:43;14.50;27.60
16301;DHT22;8258;51.020;4.248;2023-02-28T15:47:19;14.50;27.70
16301;DHT22;8258;51.020;4.248;2023-02-28T15:49:50;15.10;27.10
16301;DHT22;8258;51.020;4.248;2023-02-28T15:52:21;14.30;27.00
16301;DHT22;8258;51.020;4.248;2023-02-28T15:54:49;13.90;27.70
16301;DHT22;8258;51.020;4.248;2023-02-28T15:57:20;13.70;27.60
16301;DHT22;8258;51.020;4.248;2023-02-28T15:59:51;13.50;29.90
16301;DHT22;8258;51.020;4.248;2023-02-28T16:02:21;13.70;29.30
16301;DHT22;8258;51.020;4.248;2023-02-28T16:04:57;13.20;28.40
16301;DHT22;8258;51.020;4.248;2023-02-28T16:07:25;12.90;29.30
16301;DHT22;8258;51.020;4.248;2023-02-28T16:09:52;12.40;29.50
16301;DHT22;8258;51.020;4.248;2023-02-28T16:12:20;11.60;30.70
16301;DHT22;8258;51.020;4.248;2023-02-28T16:14:48;10.90;31.90
16301;DHT22;8258;51.020;4.248;2023-02-28T16:17:20;10.50;32.50
16301;DHT22;8258;51.020;4.248;2023-02-28T16:19:48;9.70;33.90
16301;DHT22;8258;51.020;4.248;2023-02-28T16:22:16;9.60;34.70
16301;DHT22;8258;51.020;4.248;2023-02-28T16:24:43;9.60;35.30
16301;DHT22;8258;51.020;4.248;2023-02-28T16:27:17;9.90;35.60
16301;DHT22;8258;51.020;4.248;2023-02-28T16:29:46;9.50;36.40
16301;DHT22;8258;51.020;4.248;2023-02-28T16:32:14;9.60;37.10
16301;DHT22;8258;51.020;4.248;2023-02-28T16:34:42;9.50;37.30
16301;DHT22;8258;51.020;4.248;2023-02-28T16:37:12;9.10;37.10
16301;DHT22;8258;51.020;4.248;2023-02-28T16:39:41;9.40;37.80
16301;DHT22;8258;51.020;4.248;2023-02-28T16:42:14;9.40;38.00
16301;DHT22;8258;51.020;4.248;2023-02-28T16:44:49;9.60;39.30
16301;DHT22;8258;51.020;4.248;2023-02-28T16:47:16;9.40;39.40
16301;DHT22;8258;51.020;4.248;2023-02-28T16:49:43;9.30;39.90
16301;DHT22;8258;51.020;4.248;2023-02-28T16:52:10;8.90;40.60
16301;DHT22;8258;51.020;4.248;2023-02-28T16:54:38;8.70;40.90
16301;DHT22;8258;51.020;4.248;2023-02-28T16:57:16;8.90;40.60
16301;DHT22;8258;51.020;4.248;2023-02-28T16:59:44;8.20;41.10
16301;DHT22;8258;51.020;4.248;2023-02-28T17:02:18;7.90;43.90
16301;DHT22;8258;51.020;4.248;2023-02-28T17:04:46;7.50;44.60
16301;DHT22;8258;51.020;4.248;2023-02-28T17:07:14;7.40;46.40
16301;DHT22;8258;51.020;4.248;2023-02-28T17:09:42;7.10;46.20
16301;DHT22;8258;51.020;4.248;2023-02-28T17:12:11;7.10;48.30
16301;DHT22;8258;51.020;4.248;2023-02-28T17:14:38;7.20;49.60
16301;DHT22;8258;51.020;4.248;2023-02-28T17:17:05;7.10;51.00
16301;DHT22;8258;51.020;4.248;2023-02-28T17:19:33;6.90;51.80
16301;DHT22;8258;51.020;4.248;2023-02-28T17:22:01;6.60;52.40
16301;DHT22;8258;51.020;4.248;2023-02-28T17:24:28;6.50;56.00
16301;DHT22;8258;51.020;4.248;2023-02-28T17:26:55;6.30;55.70
16301;DHT22;8258;51.020;4.248;2023-02-28T17:29:24;6.10;57.60
16301;DHT22;8258;51.020;4.248;2023-02-28T17:31:51;5.90;59.80
16301;DHT22;8258;51.020;4.248;2023-02-28T17:34:18;5.80;60.70
16301;DHT22;8258;51.020;4.248;2023-02-28T17:36:45;5.70;62.80
16301;DHT22;8258;51.020;4.248;2023-02-28T17:39:13;5.60;63.60
16301;DHT22;8258;51.020;4.248;2023-02-28T17:41:41;5.60;66.40
16301;DHT22;8258;51.020;4.248;2023-02-28T17:44:08;5.60;66.90
16301;DHT22;8258;51.020;4.248;2023-02-28T17:46:37;5.40;67.60
16301;DHT22;8258;51.020;4.248;2023-02-28T17:49:04;5.40;69.90
16301;DHT22;8258;51.020;4.248;2023-02-28T17:51:31;5.30;71.30
16301;DHT22;8258;51.020;4.248;2023-02-28T17:53:58;5.20;72.30
16301;DHT22;8258;51.020;4.248;2023-02-28T17:56:26;5.20;73.80
16301;DHT22;8258;51.020;4.248;2023-02-28T17:58:55;5.10;76.00
16301;DHT22;8258;51.020;4.248;2023-02-28T18:01:23;5.20;76.50
16301;DHT22;8258;51.020;4.248;2023-02-28T18:03:53;5.10;78.60
16301;DHT22;8258;51.020;4.248;2023-02-28T18:06:22;5.10;80.50
16301;DHT22;8258;51.020;4.248;2023-02-28T18:08:50;5.00;80.40
16301;DHT22;8258;51.020;4.248;2023-02-28T18:11:18;4.90;82.90